createdAt,value
2019-02-14T00:01:01.669Z,1024.86
2019-02-14T00:02:17.951Z,1024.88
2019-02-14T00:03:01.684Z,1024.95
2019-02-14T00:04:16.751Z,1024.97
2019-02-14T00:05:51.765Z,1024.97
2019-02-14T00:07:04.672Z,1024.96
2019-02-14T00:08:10.728Z,1025.00
2019-02-14T00:08:46.457Z,1024.97
2019-02-14T00:10:10.939Z,1024.99
2019-02-14T00:11:21.086Z,1024.96
2019-02-14T00:12:24.982Z,1024.95
2019-02-14T00:13:06.147Z,1024.96
2019-02-14T00:14:32.675Z,1024.92
2019-02-14T00:15:32.484Z,1024.96
2019-02-14T00:16:30.332Z,1024.98
2019-02-14T00:17:25.117Z,1024.99
2019-02-14T00:18:39.052Z,1025.02
2019-02-14T00:19:43.769Z,1024.98
2019-02-14T00:20:47.057Z,1024.97
2019-02-14T00:21:57.606Z,1024.97
2019-02-14T00:23:04.372Z,1024.95
2019-02-14T00:23:56.187Z,1024.97
2019-02-14T00:25:15.135Z,1025.01
2019-02-14T00:26:21.186Z,1025.01
2019-02-14T00:27:28.466Z,1025.00
2019-02-14T00:28:51.308Z,1025.01
2019-02-14T00:29:34.007Z,1024.98
2019-02-14T00:30:38.421Z,1025.02
2019-02-14T00:31:54.604Z,1025.04
2019-02-14T00:32:46.827Z,1025.06
2019-02-14T00:33:50.217Z,1025.05
2019-02-14T00:35:07.631Z,1025.03
2019-02-14T00:35:52.376Z,1025.08
2019-02-14T00:37:06.824Z,1025.02
2019-02-14T00:38:07.857Z,1025.06
2019-02-14T00:39:05.303Z,1025.03
2019-02-14T00:40:36.853Z,1025.06
2019-02-14T00:41:24.874Z,1025.10
2019-02-14T00:42:44.847Z,1025.04
2019-02-14T00:43:28.270Z,1025.07
2019-02-14T00:44:58.173Z,1025.05
2019-02-14T00:45:46.814Z,1025.05
2019-02-14T00:47:04.124Z,1025.04
2019-02-14T00:48:02.087Z,1025.01
2019-02-14T00:49:16.334Z,1025.02
2019-02-14T00:50:09.475Z,1025.00
2019-02-14T00:51:28.015Z,1025.01
2019-02-14T00:52:18.612Z,1025.01
2019-02-14T00:53:37.860Z,1025.01
2019-02-14T00:54:50.665Z,1025.01
2019-02-14T00:55:46.696Z,1025.00
2019-02-14T00:56:58.776Z,1025.02
2019-02-14T00:58:05.941Z,1025.03
2019-02-14T00:58:53.867Z,1024.98
2019-02-14T01:00:02.782Z,1024.99
2019-02-14T01:01:14.155Z,1025.06
2019-02-14T01:02:16.724Z,1025.03
2019-02-14T01:03:18.372Z,1025.04
2019-02-14T01:04:33.016Z,1025.03
2019-02-14T01:05:33.417Z,1025.02
2019-02-14T01:06:59.246Z,1024.95
2019-02-14T01:08:11.746Z,1024.91
2019-02-14T01:09:15.042Z,1024.94
2019-02-14T01:10:12.986Z,1024.86
2019-02-14T01:10:59.684Z,1024.84
2019-02-14T01:12:23.653Z,1024.80
2019-02-14T01:13:42.194Z,1024.81
2019-02-14T01:14:32.269Z,1024.79
2019-02-14T01:15:52.036Z,1024.83
2019-02-14T01:16:32.793Z,1024.82
2019-02-14T01:18:12.227Z,1024.78
2019-02-14T01:19:29.548Z,1024.82
2019-02-14T01:20:23.602Z,1024.83
2019-02-14T01:21:58.323Z,1024.81
2019-02-14T01:22:58.228Z,1024.87
2019-02-14T01:23:53.320Z,1024.85
2019-02-14T01:25:36.029Z,1024.89
2019-02-14T01:26:16.785Z,1024.86
2019-02-14T01:27:29.898Z,1024.84
2019-02-14T01:28:33.798Z,1024.87
2019-02-14T01:29:45.784Z,1024.87
2019-02-14T01:30:54.905Z,1024.84
2019-02-14T01:32:18.975Z,1024.88
2019-02-14T01:33:25.854Z,1024.89
2019-02-14T01:34:27.386Z,1024.87
2019-02-14T01:35:41.683Z,1024.86
2019-02-14T01:36:54.130Z,1024.83
2019-02-14T01:37:40.412Z,1024.82
2019-02-14T01:39:11.449Z,1024.85
2019-02-14T01:39:52.814Z,1024.84
2019-02-14T01:41:06.135Z,1024.84
2019-02-14T01:41:59.394Z,1024.81
2019-02-14T01:43:18.241Z,1024.82
2019-02-14T01:44:34.013Z,1024.82
2019-02-14T01:46:16.821Z,1024.84
2019-02-14T01:47:07.872Z,1024.80
2019-02-14T01:48:19.086Z,1024.78
2019-02-14T01:49:43.667Z,1024.77
2019-02-14T01:50:41.732Z,1024.71
2019-02-14T01:51:39.690Z,1024.69
2019-02-14T01:53:49.737Z,1024.68
2019-02-14T01:54:38.889Z,1024.70
2019-02-14T01:55:35.622Z,1024.66
2019-02-14T01:56:46.584Z,1024.65
2019-02-14T01:57:53.660Z,1024.63
2019-02-14T01:59:07.294Z,1024.66
2019-02-14T02:00:09.235Z,1024.65
2019-02-14T02:01:24.193Z,1024.62
2019-02-14T02:02:29.117Z,1024.64
2019-02-14T02:03:25.640Z,1024.61
2019-02-14T02:04:37.013Z,1024.67
2019-02-14T02:05:50.398Z,1024.74
2019-02-14T02:06:35.697Z,1024.73
2019-02-14T02:07:36.111Z,1024.81
2019-02-14T02:08:56.608Z,1024.83
2019-02-14T02:09:41.963Z,1024.85
2019-02-14T02:10:51.596Z,1024.85
2019-02-14T02:12:15.973Z,1024.84
2019-02-14T02:13:09.436Z,1024.83
2019-02-14T02:14:08.821Z,1024.83
2019-02-14T02:15:36.678Z,1024.86
2019-02-14T02:16:20.506Z,1024.85
2019-02-14T02:17:44.376Z,1024.86
2019-02-14T02:18:54.515Z,1024.85
2019-02-14T02:20:16.132Z,1024.84
2019-02-14T02:21:03.043Z,1024.80
2019-02-14T02:22:16.040Z,1024.80
2019-02-14T02:23:21.993Z,1024.80
2019-02-14T02:24:23.846Z,1024.77
2019-02-14T02:25:08.077Z,1024.79
2019-02-14T02:26:22.010Z,1024.80
2019-02-14T02:27:20.478Z,1024.75
2019-02-14T02:28:21.722Z,1024.81
2019-02-14T02:29:36.160Z,1024.79
2019-02-14T02:30:33.509Z,1024.77
2019-02-14T02:32:01.262Z,1024.73
2019-02-14T02:33:00.764Z,1024.70
2019-02-14T02:33:56.672Z,1024.69
2019-02-14T02:35:04.560Z,1024.69
2019-02-14T02:36:17.570Z,1024.68
2019-02-14T02:37:26.080Z,1024.69
2019-02-14T02:38:09.088Z,1024.69
2019-02-14T02:39:26.609Z,1024.71
2019-02-14T02:40:53.645Z,1024.68
2019-02-14T02:41:44.229Z,1024.75
2019-02-14T02:42:41.373Z,1024.72
2019-02-14T02:43:52.026Z,1024.72
2019-02-14T02:44:48.655Z,1024.70
2019-02-14T02:46:02.904Z,1024.71
2019-02-14T02:47:07.816Z,1024.70
2019-02-14T02:48:10.899Z,1024.72
2019-02-14T02:49:19.813Z,1024.72
2019-02-14T02:50:17.360Z,1024.74
2019-02-14T02:51:28.325Z,1024.73
2019-02-14T02:52:25.260Z,1024.72
2019-02-14T02:53:47.395Z,1024.77
2019-02-14T02:54:45.855Z,1024.77
2019-02-14T02:55:43.507Z,1024.76
2019-02-14T02:56:54.166Z,1024.76
2019-02-14T02:57:59.188Z,1024.71
2019-02-14T02:59:00.631Z,1024.68
2019-02-14T03:00:11.903Z,1024.72
2019-02-14T03:01:33.922Z,1024.69
2019-02-14T03:02:23.895Z,1024.71
2019-02-14T03:03:30.663Z,1024.68
2019-02-14T03:04:31.589Z,1024.66
2019-02-14T03:05:38.867Z,1024.65
2019-02-14T03:06:42.971Z,1024.67
2019-02-14T03:07:51.177Z,1024.63
2019-02-14T03:08:47.286Z,1024.68
2019-02-14T03:09:56.302Z,1024.69
2019-02-14T03:11:03.782Z,1024.61
2019-02-14T03:12:15.058Z,1024.69
2019-02-14T03:13:16.108Z,1024.66
2019-02-14T03:14:19.266Z,1024.68
2019-02-14T03:15:26.234Z,1024.68
2019-02-14T03:16:33.925Z,1024.67
2019-02-14T03:17:36.080Z,1024.62
2019-02-14T03:18:33.018Z,1024.59
2019-02-14T03:19:47.469Z,1024.62
2019-02-14T03:20:55.761Z,1024.64
2019-02-14T03:21:58.121Z,1024.62
2019-02-14T03:23:00.590Z,1024.62
2019-02-14T03:24:07.968Z,1024.63
2019-02-14T03:25:12.689Z,1024.63
2019-02-14T03:26:16.491Z,1024.65
2019-02-14T03:27:20.175Z,1024.66
2019-02-14T03:28:21.617Z,1024.69
2019-02-14T03:29:32.169Z,1024.71
2019-02-14T03:30:40.594Z,1024.79
2019-02-14T03:31:43.243Z,1024.74
2019-02-14T03:32:51.031Z,1024.76
2019-02-14T03:34:00.461Z,1024.76
2019-02-14T03:35:02.614Z,1024.79
2019-02-14T03:36:04.672Z,1024.79
2019-02-14T03:37:09.796Z,1024.77
2019-02-14T03:38:12.682Z,1024.75
2019-02-14T03:39:26.615Z,1024.76
2019-02-14T03:40:30.093Z,1024.75
2019-02-14T03:41:29.689Z,1024.74
2019-02-14T03:42:39.426Z,1024.78
2019-02-14T03:43:49.671Z,1024.75
2019-02-14T03:44:43.334Z,1024.77
2019-02-14T03:45:51.227Z,1024.75
2019-02-14T03:47:04.540Z,1024.75
2019-02-14T03:48:02.308Z,1024.75
2019-02-14T03:49:06.193Z,1024.74
2019-02-14T03:50:16.953Z,1024.79
2019-02-14T03:51:18.290Z,1024.78
2019-02-14T03:52:26.696Z,1024.78
2019-02-14T03:53:32.743Z,1024.77
2019-02-14T03:54:41.759Z,1024.76
2019-02-14T03:55:45.760Z,1024.75
2019-02-14T03:56:52.832Z,1024.74
2019-02-14T03:57:49.979Z,1024.73
2019-02-14T03:59:02.579Z,1024.81
2019-02-14T04:00:07.393Z,1024.73
2019-02-14T04:01:22.659Z,1024.81
2019-02-14T04:02:19.491Z,1024.78
2019-02-14T04:03:23.800Z,1024.78
2019-02-14T04:04:32.104Z,1024.78
2019-02-14T04:05:31.289Z,1024.78
2019-02-14T04:06:42.568Z,1024.77
2019-02-14T04:07:48.201Z,1024.76
2019-02-14T04:08:49.130Z,1024.74
2019-02-14T04:10:02.038Z,1024.76
2019-02-14T04:11:08.090Z,1024.78
2019-02-14T04:12:13.009Z,1024.79
2019-02-14T04:13:09.636Z,1024.82
2019-02-14T04:14:22.955Z,1024.80
2019-02-14T04:15:24.189Z,1024.84
2019-02-14T04:16:33.424Z,1024.87
2019-02-14T04:17:41.713Z,1024.92
2019-02-14T04:18:41.317Z,1024.88
2019-02-14T04:19:43.985Z,1024.88
2019-02-14T04:20:53.205Z,1024.88
2019-02-14T04:21:56.488Z,1024.87
2019-02-14T04:22:54.344Z,1024.84
2019-02-14T04:24:12.476Z,1024.84
2019-02-14T04:25:14.224Z,1024.83
2019-02-14T04:26:18.226Z,1024.87
2019-02-14T04:27:34.001Z,1024.78
2019-02-14T04:28:31.142Z,1024.83
2019-02-14T04:29:30.838Z,1024.86
2019-02-14T04:30:49.691Z,1024.83
2019-02-14T04:31:52.970Z,1024.92
2019-02-14T04:32:58.611Z,1024.93
2019-02-14T04:33:58.616Z,1024.93
2019-02-14T04:35:09.481Z,1024.94
2019-02-14T04:36:12.761Z,1024.95
2019-02-14T04:37:18.101Z,1024.90
2019-02-14T04:38:17.999Z,1024.96
2019-02-14T04:39:23.332Z,1024.95
2019-02-14T04:40:36.750Z,1024.96
2019-02-14T04:41:40.666Z,1024.96
2019-02-14T04:42:50.184Z,1024.95
2019-02-14T04:43:50.805Z,1024.93
2019-02-14T04:44:53.885Z,1024.95
2019-02-14T04:45:58.085Z,1024.95
2019-02-14T04:47:07.718Z,1024.93
2019-02-14T04:48:07.418Z,1024.95
2019-02-14T04:49:15.002Z,1024.92
2019-02-14T04:50:26.990Z,1024.87
2019-02-14T04:51:30.579Z,1024.89
2019-02-14T04:52:28.541Z,1024.84
2019-02-14T04:53:44.520Z,1024.85
2019-02-14T04:54:48.316Z,1024.81
2019-02-14T04:55:44.639Z,1024.82
2019-02-14T04:56:55.498Z,1024.85
2019-02-14T04:58:02.470Z,1024.85
2019-02-14T04:59:04.321Z,1024.84
2019-02-14T05:00:17.024Z,1024.82
2019-02-14T05:01:12.952Z,1024.88
2019-02-14T05:02:18.268Z,1024.87
2019-02-14T05:03:34.974Z,1024.94
2019-02-14T05:04:39.580Z,1024.90
2019-02-14T05:05:41.634Z,1024.91
2019-02-14T05:06:46.658Z,1024.93
2019-02-14T05:07:47.894Z,1024.90
2019-02-14T05:08:51.487Z,1024.91
2019-02-14T05:10:06.543Z,1024.88
2019-02-14T05:11:02.455Z,1024.89
2019-02-14T05:12:05.944Z,1024.90
2019-02-14T05:13:20.290Z,1024.89
2019-02-14T05:14:22.445Z,1024.89
2019-02-14T05:15:36.071Z,1024.92
2019-02-14T05:16:35.974Z,1024.92
2019-02-14T05:17:39.362Z,1024.98
2019-02-14T05:18:39.879Z,1024.96
2019-02-14T05:19:54.531Z,1025.00
2019-02-14T05:20:54.023Z,1025.00
2019-02-14T05:21:54.953Z,1025.01
2019-02-14T05:23:10.224Z,1025.05
2019-02-14T05:24:11.453Z,1025.05
2019-02-14T05:25:16.789Z,1025.01
2019-02-14T05:26:22.647Z,1025.04
2019-02-14T05:27:24.683Z,1025.06
2019-02-14T05:28:30.426Z,1025.07
2019-02-14T05:29:41.526Z,1025.04
2019-02-14T05:30:44.365Z,1025.05
2019-02-14T05:31:44.168Z,1025.03
2019-02-14T05:32:50.113Z,1025.04
2019-02-14T05:33:59.438Z,1025.05
2019-02-14T05:34:56.683Z,1025.06
2019-02-14T05:36:07.029Z,1025.06
2019-02-14T05:37:07.140Z,1025.06
2019-02-14T05:38:19.642Z,1025.08
2019-02-14T05:39:25.997Z,1025.07
2019-02-14T05:40:34.914Z,1025.11
2019-02-14T05:41:31.123Z,1025.12
2019-02-14T05:42:37.689Z,1025.14
2019-02-14T05:43:51.934Z,1025.13
2019-02-14T05:44:56.656Z,1025.13
2019-02-14T05:45:56.248Z,1025.17
2019-02-14T05:47:01.380Z,1025.17
2019-02-14T05:48:10.294Z,1025.20
2019-02-14T05:49:11.215Z,1025.15
2019-02-14T05:50:15.112Z,1025.18
2019-02-14T05:51:29.968Z,1025.13
2019-02-14T05:52:30.598Z,1025.14
2019-02-14T05:53:36.025Z,1025.18
2019-02-14T05:54:43.193Z,1025.19
2019-02-14T05:55:45.662Z,1025.22
2019-02-14T05:56:56.627Z,1025.26
2019-02-14T05:58:00.423Z,1025.23
2019-02-14T05:59:04.317Z,1025.25
2019-02-14T06:00:06.382Z,1025.31
2019-02-14T06:01:05.153Z,1025.31
2019-02-14T06:02:21.341Z,1025.30
2019-02-14T06:03:34.862Z,1025.32
2019-02-14T06:04:29.957Z,1025.32
2019-02-14T06:05:42.454Z,1025.33
2019-02-14T06:06:41.605Z,1025.37
2019-02-14T06:07:49.945Z,1025.39
2019-02-14T06:08:50.056Z,1025.48
2019-02-14T06:09:58.764Z,1025.44
2019-02-14T06:11:04.122Z,1025.46
2019-02-14T06:12:16.337Z,1025.40
2019-02-14T06:13:13.540Z,1025.45
2019-02-14T06:14:21.423Z,1025.43
2019-02-14T06:15:29.624Z,1025.42
2019-02-14T06:16:26.247Z,1025.46
2019-02-14T06:17:35.676Z,1025.40
2019-02-14T06:18:43.159Z,1025.44
2019-02-14T06:19:46.341Z,1025.37
2019-02-14T06:20:53.109Z,1025.40
2019-02-14T06:21:59.973Z,1025.41
2019-02-14T06:23:11.039Z,1025.43
2019-02-14T06:24:11.972Z,1025.45
2019-02-14T06:25:15.871Z,1025.47
2019-02-14T06:26:25.703Z,1025.49
2019-02-14T06:27:20.798Z,1025.48
2019-02-14T06:28:42.784Z,1025.52
2019-02-14T06:29:34.420Z,1025.55
2019-02-14T06:30:47.441Z,1025.54
2019-02-14T06:31:51.345Z,1025.54
2019-02-14T06:32:53.802Z,1025.59
2019-02-14T06:34:06.199Z,1025.55
2019-02-14T06:35:07.843Z,1025.56
2019-02-14T06:36:14.710Z,1025.60
2019-02-14T06:37:28.851Z,1025.63
2019-02-14T06:38:21.580Z,1025.66
2019-02-14T06:39:33.269Z,1025.66
2019-02-14T06:40:33.785Z,1025.67
2019-02-14T06:41:37.385Z,1025.65
2019-02-14T06:42:39.737Z,1025.65
2019-02-14T06:43:55.514Z,1025.67
2019-02-14T06:45:01.464Z,1025.70
2019-02-14T06:46:01.670Z,1025.65
2019-02-14T06:47:09.566Z,1025.70
2019-02-14T06:48:04.044Z,1025.66
2019-02-14T06:49:27.500Z,1025.67
2019-02-14T06:50:23.204Z,1025.68
2019-02-14T06:51:31.609Z,1025.65
2019-02-14T06:52:31.822Z,1025.68
2019-02-14T06:53:39.198Z,1025.67
2019-02-14T06:54:49.243Z,1025.66
2019-02-14T06:55:45.973Z,1025.65
2019-02-14T06:56:48.640Z,1025.66
2019-02-14T06:58:09.754Z,1025.68
2019-02-14T06:59:01.556Z,1025.64
2019-02-14T07:00:14.286Z,1025.69
2019-02-14T07:01:23.182Z,1025.70
2019-02-14T07:02:23.390Z,1025.72
2019-02-14T07:03:25.343Z,1025.76
2019-02-14T07:04:32.310Z,1025.76
2019-02-14T07:05:37.131Z,1025.80
2019-02-14T07:06:41.235Z,1025.78
2019-02-14T07:07:51.174Z,1025.82
2019-02-14T07:09:04.697Z,1025.86
2019-02-14T07:10:07.573Z,1025.84
2019-02-14T07:11:04.918Z,1025.81
2019-02-14T07:12:10.965Z,1025.80
2019-02-14T07:13:22.239Z,1025.81
2019-02-14T07:14:22.206Z,1025.81
2019-02-14T07:15:29.624Z,1025.77
2019-02-14T07:16:33.212Z,1025.76
2019-02-14T07:17:42.029Z,1025.77
2019-02-14T07:18:44.188Z,1025.74
2019-02-14T07:19:49.210Z,1025.78
2019-02-14T07:21:13.073Z,1025.79
2019-02-14T07:22:00.997Z,1025.80
2019-02-14T07:23:03.874Z,1025.82
2019-02-14T07:24:20.476Z,1025.84
2019-02-14T07:25:17.711Z,1025.82
2019-02-14T07:26:25.501Z,1025.87
2019-02-14T07:27:33.492Z,1025.88
2019-02-14T07:28:31.151Z,1025.89
2019-02-14T07:29:41.396Z,1025.88
2019-02-14T07:30:55.430Z,1025.89
2019-02-14T07:31:52.466Z,1025.88
2019-02-14T07:33:04.248Z,1025.88
2019-02-14T07:34:07.124Z,1025.89
2019-02-14T07:35:21.160Z,1025.88
2019-02-14T07:36:16.865Z,1025.89
2019-02-14T07:37:15.028Z,1025.94
2019-02-14T07:38:29.992Z,1025.93
2019-02-14T07:39:27.433Z,1025.95
2019-02-14T07:40:50.170Z,1025.95
2019-02-14T07:41:46.698Z,1025.98
2019-02-14T07:42:46.499Z,1026.01
2019-02-14T07:43:52.864Z,1026.01
2019-02-14T07:45:03.718Z,1026.07
2019-02-14T07:46:03.519Z,1026.06
2019-02-14T07:47:14.080Z,1026.04
2019-02-14T07:48:23.403Z,1026.06
2019-02-14T07:49:20.950Z,1026.04
2019-02-14T07:50:43.483Z,1026.02
2019-02-14T07:51:28.850Z,1026.01
2019-02-14T07:52:47.188Z,1026.01
2019-02-14T07:53:37.875Z,1025.97
2019-02-14T07:54:52.795Z,1025.96
2019-02-14T07:55:51.710Z,1025.93
2019-02-14T07:57:03.290Z,1025.92
2019-02-14T07:58:16.301Z,1025.89
2019-02-14T07:59:05.455Z,1025.89
2019-02-14T08:00:07.918Z,1025.88
2019-02-14T08:01:13.248Z,1025.90
2019-02-14T08:02:19.295Z,1025.85
2019-02-14T08:03:26.063Z,1025.85
2019-02-14T08:04:38.972Z,1025.86
2019-02-14T08:05:43.954Z,1025.87
2019-02-14T08:07:04.586Z,1025.86
2019-02-14T08:08:03.669Z,1025.90
2019-02-14T08:09:02.962Z,1025.88
2019-02-14T08:10:04.706Z,1025.86
2019-02-14T08:11:09.434Z,1025.89
2019-02-14T08:12:16.499Z,1025.82
2019-02-14T08:13:18.451Z,1025.78
2019-02-14T08:14:21.129Z,1025.78
2019-02-14T08:15:32.288Z,1025.80
2019-02-14T08:16:38.240Z,1025.77
2019-02-14T08:17:36.704Z,1025.76
2019-02-14T08:18:55.245Z,1025.78
2019-02-14T08:19:58.018Z,1025.79
2019-02-14T08:21:06.936Z,1025.82
2019-02-14T08:22:08.478Z,1025.83
2019-02-14T08:23:12.783Z,1025.86
2019-02-14T08:24:23.748Z,1025.84
2019-02-14T08:25:28.569Z,1025.84
2019-02-14T08:26:31.645Z,1025.87
2019-02-14T08:27:43.738Z,1025.91
2019-02-14T08:28:39.551Z,1025.93
2019-02-14T08:29:47.547Z,1025.94
2019-02-14T08:30:58.195Z,1025.98
2019-02-14T08:32:04.860Z,1026.02
2019-02-14T08:33:07.016Z,1026.04
2019-02-14T08:34:21.361Z,1026.05
2019-02-14T08:35:16.656Z,1026.04
2019-02-14T08:36:33.127Z,1025.95
2019-02-14T08:37:28.241Z,1025.97
2019-02-14T08:39:13.715Z,1025.96
2019-02-14T08:40:00.315Z,1025.96
2019-02-14T08:41:00.927Z,1025.88
2019-02-14T08:42:26.840Z,1025.83
2019-02-14T08:43:27.231Z,1025.85
2019-02-14T08:44:17.616Z,1025.85
2019-02-14T08:45:22.765Z,1025.86
2019-02-14T08:46:39.158Z,1025.81
2019-02-14T08:47:55.546Z,1025.86
2019-02-14T08:48:52.790Z,1025.81
2019-02-14T08:49:44.096Z,1025.88
2019-02-14T08:50:42.360Z,1025.87
2019-02-14T08:52:08.375Z,1025.89
2019-02-14T08:53:02.543Z,1025.90
2019-02-14T08:54:22.115Z,1025.93
2019-02-14T08:55:10.085Z,1025.95
2019-02-14T08:56:10.145Z,1025.92
2019-02-14T08:57:13.326Z,1025.92
2019-02-14T08:58:12.306Z,1025.91
2019-02-14T08:59:28.902Z,1025.90
2019-02-14T09:00:32.189Z,1025.87
2019-02-14T09:01:30.963Z,1025.85
2019-02-14T09:02:33.813Z,1025.86
2019-02-14T09:03:48.795Z,1025.87
2019-02-14T09:04:55.669Z,1025.90
2019-02-14T09:06:01.406Z,1025.86
2019-02-14T09:07:00.593Z,1025.82
2019-02-14T09:08:01.733Z,1025.81
2019-02-14T09:09:15.251Z,1025.85
2019-02-14T09:10:19.867Z,1025.83
2019-02-14T09:11:22.536Z,1025.87
2019-02-14T09:12:27.562Z,1025.84
2019-02-14T09:13:43.554Z,1025.92
2019-02-14T09:14:36.282Z,1025.92
2019-02-14T09:15:38.334Z,1025.97
2019-02-14T09:16:47.246Z,1025.96
2019-02-14T09:17:50.634Z,1025.95
2019-02-14T09:19:00.367Z,1025.92
2019-02-14T09:20:11.444Z,1025.92
2019-02-14T09:21:04.272Z,1025.90
2019-02-14T09:22:13.300Z,1025.88
2019-02-14T09:23:15.321Z,1025.83
2019-02-14T09:24:25.913Z,1025.86
2019-02-14T09:25:30.823Z,1025.89
2019-02-14T09:26:32.368Z,1025.91
2019-02-14T09:27:44.464Z,1025.93
2019-02-14T09:28:37.906Z,1025.91
2019-02-14T09:29:47.439Z,1025.97
2019-02-14T09:30:53.285Z,1025.93
2019-02-14T09:32:08.035Z,1025.93
2019-02-14T09:33:00.774Z,1025.98
2019-02-14T09:34:12.758Z,1025.97
2019-02-14T09:35:17.783Z,1025.94
2019-02-14T09:36:22.609Z,1025.94
2019-02-14T09:37:29.574Z,1025.96
2019-02-14T09:38:36.031Z,1025.95
2019-02-14T09:39:41.439Z,1025.95
2019-02-14T09:40:45.373Z,1025.96
2019-02-14T09:41:51.621Z,1025.97
2019-02-14T09:42:56.333Z,1025.97
2019-02-14T09:44:03.202Z,1025.97
2019-02-14T09:45:12.233Z,1026.02
2019-02-14T09:46:10.189Z,1026.00
2019-02-14T09:47:24.523Z,1026.03
2019-02-14T09:48:36.613Z,1025.98
2019-02-14T09:49:34.060Z,1025.98
2019-02-14T09:50:38.368Z,1026.00
2019-02-14T09:51:52.510Z,1025.98
2019-02-14T09:53:10.330Z,1026.03
2019-02-14T09:54:19.042Z,1026.06
2019-02-14T09:55:18.948Z,1026.02
2019-02-14T09:56:20.694Z,1026.03
2019-02-14T09:57:30.943Z,1026.05
2019-02-14T09:58:25.429Z,1026.06
2019-02-14T09:59:56.763Z,1026.01
2019-02-14T10:01:21.157Z,1025.97
2019-02-14T10:02:44.796Z,1025.96
2019-02-14T10:03:24.838Z,1025.96
2019-02-14T10:04:49.739Z,1025.93
2019-02-14T10:05:36.855Z,1025.92
2019-02-14T10:07:03.180Z,1025.95
2019-02-14T10:08:13.257Z,1025.96
2019-02-14T10:09:08.596Z,1025.98
2019-02-14T10:10:13.419Z,1025.98
2019-02-14T10:11:27.669Z,1026.00
2019-02-14T10:12:28.588Z,1025.98
2019-02-14T10:13:20.748Z,1025.98
2019-02-14T10:14:40.586Z,1025.94
2019-02-14T10:15:16.829Z,1025.98
2019-02-14T10:16:39.059Z,1025.91
2019-02-14T10:17:50.328Z,1025.92
2019-02-14T10:18:59.458Z,1025.90
2019-02-14T10:20:00.481Z,1025.93
2019-02-14T10:20:50.245Z,1025.96
2019-02-14T10:21:53.324Z,1025.97
2019-02-14T10:23:12.790Z,1025.94
2019-02-14T10:24:16.175Z,1025.95
2019-02-14T10:25:15.722Z,1025.93
2019-02-14T10:26:20.291Z,1025.94
2019-02-14T10:27:21.414Z,1025.93
2019-02-14T10:28:21.218Z,1025.94
2019-02-14T10:29:53.176Z,1025.90
2019-02-14T10:30:36.080Z,1025.88
2019-02-14T10:31:44.073Z,1025.92
2019-02-14T10:32:50.025Z,1025.92
2019-02-14T10:33:49.309Z,1025.94
2019-02-14T10:35:15.429Z,1025.90
2019-02-14T10:36:01.413Z,1025.92
2019-02-14T10:37:11.458Z,1025.89
2019-02-14T10:38:22.031Z,1025.86
2019-02-14T10:39:20.989Z,1025.84
2019-02-14T10:40:40.042Z,1025.82
2019-02-14T10:41:32.165Z,1025.79
2019-02-14T10:42:38.825Z,1025.77
2019-02-14T10:43:34.432Z,1025.78
2019-02-14T10:44:51.335Z,1025.78
2019-02-14T10:45:56.867Z,1025.74
2019-02-14T10:46:47.967Z,1025.71
2019-02-14T10:48:07.224Z,1025.73
2019-02-14T10:49:08.061Z,1025.70
2019-02-14T10:50:14.306Z,1025.72
2019-02-14T10:51:20.353Z,1025.69
2019-02-14T10:52:24.355Z,1025.67
2019-02-14T10:53:28.874Z,1025.62
2019-02-14T10:54:35.322Z,1025.60
2019-02-14T10:55:42.808Z,1025.59
2019-02-14T10:56:48.443Z,1025.58
2019-02-14T10:57:57.873Z,1025.49
2019-02-14T10:58:55.024Z,1025.57
2019-02-14T10:59:59.634Z,1025.57
2019-02-14T11:00:58.213Z,1025.62
2019-02-14T11:02:17.979Z,1025.60
2019-02-14T11:03:18.696Z,1025.60
2019-02-14T11:04:22.800Z,1025.62
2019-02-14T11:05:39.702Z,1025.59
2019-02-14T11:06:32.476Z,1025.60
2019-02-14T11:07:45.757Z,1025.58
2019-02-14T11:08:46.273Z,1025.56
2019-02-14T11:09:48.944Z,1025.53
2019-02-14T11:10:49.153Z,1025.56
2019-02-14T11:12:03.807Z,1025.54
2019-02-14T11:13:23.680Z,1025.55
2019-02-14T11:14:28.804Z,1025.60
2019-02-14T11:15:14.783Z,1025.57
2019-02-14T11:16:20.219Z,1025.58
2019-02-14T11:17:36.307Z,1025.57
2019-02-14T11:18:28.731Z,1025.60
2019-02-14T11:19:37.748Z,1025.61
2019-02-14T11:20:44.619Z,1025.60
2019-02-14T11:21:48.925Z,1025.62
2019-02-14T11:23:01.939Z,1025.66
2019-02-14T11:24:14.352Z,1025.62
2019-02-14T11:26:04.209Z,1025.67
2019-02-14T11:26:35.544Z,1025.59
2019-02-14T11:27:51.198Z,1025.61
2019-02-14T11:29:01.775Z,1025.64
2019-02-14T11:29:46.212Z,1025.66
2019-02-14T11:30:53.286Z,1025.64
2019-02-14T11:31:55.344Z,1025.68
2019-02-14T11:33:03.744Z,1025.69
2019-02-14T11:34:21.775Z,1025.65
2019-02-14T11:35:22.088Z,1025.70
2019-02-14T11:36:33.876Z,1025.67
2019-02-14T11:37:32.102Z,1025.68
2019-02-14T11:38:40.413Z,1025.65
2019-02-14T11:39:43.826Z,1025.66
2019-02-14T11:40:47.316Z,1025.65
2019-02-14T11:41:46.090Z,1025.64
2019-02-14T11:42:47.838Z,1025.66
2019-02-14T11:44:02.823Z,1025.64
2019-02-14T11:45:14.168Z,1025.64
2019-02-14T11:46:17.051Z,1025.62
2019-02-14T11:47:21.762Z,1025.64
2019-02-14T11:48:17.475Z,1025.59
2019-02-14T11:49:30.074Z,1025.61
2019-02-14T11:50:38.574Z,1025.60
2019-02-14T11:51:37.455Z,1025.59
2019-02-14T11:52:45.041Z,1025.58
2019-02-14T11:53:57.234Z,1025.60
2019-02-14T11:54:59.295Z,1025.55
2019-02-14T11:56:12.197Z,1025.52
2019-02-14T11:57:20.909Z,1025.51
2019-02-14T11:58:07.707Z,1025.49
2019-02-14T11:59:16.722Z,1025.50
2019-02-14T12:00:15.298Z,1025.47
2019-02-14T12:01:27.695Z,1025.48
2019-02-14T12:02:33.541Z,1025.43
2019-02-14T12:03:39.800Z,1025.44
2019-02-14T12:04:49.425Z,1025.44
2019-02-14T12:05:58.040Z,1025.41
2019-02-14T12:07:02.036Z,1025.40
2019-02-14T12:08:02.549Z,1025.41
2019-02-14T12:09:15.562Z,1025.40
2019-02-14T12:10:15.992Z,1025.41
2019-02-14T12:11:27.864Z,1025.37
2019-02-14T12:12:27.993Z,1025.33
2019-02-14T12:13:47.028Z,1025.31
2019-02-14T12:14:51.340Z,1025.34
2019-02-14T12:15:50.736Z,1025.31
2019-02-14T12:16:44.697Z,1025.30
2019-02-14T12:18:09.534Z,1025.36
2019-02-14T12:18:58.530Z,1025.35
2019-02-14T12:20:17.175Z,1025.36
2019-02-14T12:21:23.224Z,1025.36
2019-02-14T12:22:15.244Z,1025.38
2019-02-14T12:23:33.067Z,1025.38
2019-02-14T12:25:03.080Z,1025.34
2019-02-14T12:25:40.966Z,1025.34
2019-02-14T12:27:01.043Z,1025.33
2019-02-14T12:27:51.629Z,1025.33
2019-02-14T12:29:00.850Z,1025.29
2019-02-14T12:30:36.595Z,1025.29
2019-02-14T12:31:23.306Z,1025.30
2019-02-14T12:32:53.403Z,1025.31
2019-02-14T12:33:28.016Z,1025.28
2019-02-14T12:35:03.044Z,1025.27
2019-02-14T12:37:37.054Z,1025.21
2019-02-14T12:38:52.228Z,1025.13
2019-02-14T12:40:08.511Z,1025.16
2019-02-14T12:41:07.805Z,1025.14
2019-02-14T12:42:14.559Z,1025.14
2019-02-14T12:43:10.475Z,1025.11
2019-02-14T12:44:01.568Z,1025.10
2019-02-14T12:45:02.964Z,1025.10
2019-02-14T12:46:16.637Z,1025.10
2019-02-14T12:47:19.825Z,1025.15
2019-02-14T12:48:38.155Z,1025.12
2019-02-14T12:49:25.974Z,1025.10
2019-02-14T12:50:40.524Z,1025.06
2019-02-14T12:51:49.849Z,1025.03
2019-02-14T12:52:45.860Z,1025.01
2019-02-14T12:53:54.278Z,1025.04
2019-02-14T12:55:06.051Z,1025.02
2019-02-14T12:56:22.029Z,1025.06
2019-02-14T12:57:30.331Z,1025.06
2019-02-14T12:58:11.907Z,1025.06
2019-02-14T12:59:26.566Z,1025.05
2019-02-14T13:00:36.291Z,1025.06
2019-02-14T13:01:32.306Z,1025.08
2019-02-14T13:02:51.463Z,1025.08
2019-02-14T13:03:57.610Z,1025.02
2019-02-14T13:04:47.583Z,1025.01
2019-02-14T13:06:04.703Z,1025.00
2019-02-14T13:07:15.823Z,1024.92
2019-02-14T13:08:20.995Z,1024.98
2019-02-14T13:09:32.669Z,1025.03
2019-02-14T13:10:47.626Z,1025.00
2019-02-14T13:11:21.212Z,1024.99
2019-02-14T13:12:22.444Z,1024.95
2019-02-14T13:14:01.989Z,1024.99
2019-02-14T13:15:24.216Z,1025.00
2019-02-14T13:16:02.913Z,1025.00
2019-02-14T13:17:13.721Z,1024.96
2019-02-14T13:18:19.211Z,1024.95
2019-02-14T13:19:32.322Z,1024.94